createdAt,value
2022-10-18T00:00:55.125Z,102104.94
2022-10-18T00:03:23.291Z,102104.16
2022-10-18T00:05:52.823Z,102104.22
2022-10-18T00:08:21.466Z,102102.47
2022-10-18T00:10:49.995Z,102099.00
2022-10-18T00:13:18.483Z,102105.38
2022-10-18T00:15:50.828Z,102109.84
2022-10-18T00:18:19.426Z,102118.75
2022-10-18T00:20:47.599Z,102119.63
2022-10-18T00:23:16.978Z,102116.94
2022-10-18T00:25:44.975Z,102115.09
2022-10-18T00:28:12.986Z,102114.16
2022-10-18T00:30:41.079Z,102116.88
2022-10-18T00:33:09.370Z,102115.91
2022-10-18T00:35:37.411Z,102118.59
2022-10-18T00:38:05.406Z,102126.75
2022-10-18T00:40:34.795Z,102131.22
2022-10-18T00:43:02.891Z,102128.59
2022-10-18T00:45:31.105Z,102124.03
2022-10-18T00:48:02.094Z,102125.06
2022-10-18T00:50:33.161Z,102137.75
2022-10-18T00:53:03.549Z,102128.84
2022-10-18T00:55:35.073Z,102136.16
2022-10-18T00:58:03.554Z,102140.81
2022-10-18T01:00:31.902Z,102142.75
2022-10-18T01:03:00.527Z,102142.03
2022-10-18T01:05:28.788Z,102143.84
2022-10-18T01:08:15.862Z,102144.81
2022-10-18T01:11:01.700Z,102149.47
2022-10-18T01:13:49.027Z,102156.81
2022-10-18T01:16:22.210Z,102151.41
2022-10-18T01:18:54.123Z,102150.44
2022-10-18T01:21:35.159Z,102153.06
2022-10-18T01:24:36.402Z,102149.38
2022-10-18T01:27:25.031Z,102155.59
2022-10-18T01:30:04.757Z,102157.38
2022-10-18T01:32:37.681Z,102158.28
2022-10-18T01:35:12.214Z,102159.25
2022-10-18T01:37:41.023Z,102149.38
2022-10-18T01:40:11.151Z,102154.09
2022-10-18T01:42:39.137Z,102148.69
2022-10-18T01:45:09.351Z,102148.78
2022-10-18T01:47:38.766Z,102157.97
2022-10-18T01:50:08.087Z,102150.78
2022-10-18T01:52:36.127Z,102146.41
2022-10-18T01:55:04.526Z,102149.09
2022-10-18T01:57:37.909Z,102149.19
2022-10-18T02:00:09.484Z,102153.06
2022-10-18T02:02:45.145Z,102157.69
2022-10-18T02:05:19.157Z,102161.56
2022-10-18T02:08:00.218Z,102159.06
2022-10-18T02:10:42.439Z,102155.66
2022-10-18T02:13:11.567Z,102143.06
2022-10-18T02:15:40.780Z,102143.16
2022-10-18T02:18:14.298Z,102140.44
2022-10-18T02:20:42.989Z,102142.28
2022-10-18T02:23:11.418Z,102145.00
2022-10-18T02:25:39.927Z,102141.47
2022-10-18T02:28:08.084Z,102141.47
2022-10-18T02:30:40.994Z,102145.16
2022-10-18T02:33:14.105Z,102137.97
2022-10-18T02:35:45.742Z,102145.16
2022-10-18T02:38:15.321Z,102137.97
2022-10-18T02:40:43.471Z,102130.81
2022-10-18T02:43:11.554Z,102133.59
2022-10-18T02:45:39.656Z,102143.56
2022-10-18T02:48:07.731Z,102134.66
2022-10-18T02:50:37.098Z,102134.66
2022-10-18T02:53:05.348Z,102132.03
2022-10-18T02:55:33.353Z,102135.72
2022-10-18T02:58:01.422Z,102128.47
2022-10-18T03:00:29.467Z,102135.72
2022-10-18T03:02:57.519Z,102138.50
2022-10-18T03:05:25.527Z,102138.50
2022-10-18T03:07:57.293Z,102133.97
2022-10-18T03:10:25.320Z,102139.38
2022-10-18T03:12:53.311Z,102136.75
2022-10-18T03:15:21.333Z,102135.94
2022-10-18T03:17:49.340Z,102138.66
2022-10-18T03:20:17.340Z,102148.72
2022-10-18T03:22:45.357Z,102139.78
2022-10-18T03:25:14.837Z,102139.00
2022-10-18T03:27:42.863Z,102144.53
2022-10-18T03:30:13.424Z,102136.63
2022-10-18T03:32:41.752Z,102144.06
2022-10-18T03:35:10.691Z,102149.56
2022-10-18T03:37:38.797Z,102142.47
2022-10-18T03:40:08.603Z,102141.59
2022-10-18T03:42:37.988Z,102154.19
2022-10-18T03:45:06.824Z,102141.59
2022-10-18T03:47:34.924Z,102137.94
2022-10-18T03:50:02.997Z,102151.47
2022-10-18T03:52:31.440Z,102143.34
2022-10-18T03:54:59.722Z,102147.81
2022-10-18T03:57:27.704Z,102157.69
2022-10-18T03:59:57.077Z,102158.66
2022-10-18T04:02:25.236Z,102156.81
2022-10-18T04:04:53.458Z,102154.97
2022-10-18T04:07:21.418Z,102152.28
2022-10-18T04:09:49.428Z,102140.56
2022-10-18T04:12:17.433Z,102146.06
2022-10-18T04:14:45.461Z,102140.72
2022-10-18T04:17:14.859Z,102137.28
2022-10-18T04:19:42.851Z,102135.72
2022-10-18T04:22:12.069Z,102128.63
2022-10-18T04:24:40.498Z,102132.47
2022-10-18T04:27:09.201Z,102129.91
2022-10-18T04:29:37.182Z,102129.28
2022-10-18T04:32:05.388Z,102125.72
2022-10-18T04:34:34.798Z,102126.84
2022-10-18T04:37:02.790Z,102124.25
2022-10-18T04:39:30.931Z,102119.09
2022-10-18T04:41:58.919Z,102132.81
2022-10-18T04:44:27.000Z,102128.50
2022-10-18T04:46:54.981Z,102123.16
2022-10-18T04:49:23.034Z,102130.47
2022-10-18T04:51:52.403Z,102125.22
2022-10-18T04:54:21.893Z,102128.00
2022-10-18T04:56:51.951Z,102124.50
2022-10-18T04:59:20.186Z,102122.81
2022-10-18T05:01:48.319Z,102119.31
2022-10-18T05:04:16.449Z,102122.03
2022-10-18T05:06:44.517Z,102118.53
2022-10-18T05:09:13.963Z,102126.66
2022-10-18T05:11:41.963Z,102128.47
2022-10-18T05:14:10.189Z,102118.63
2022-10-18T05:16:38.289Z,102114.06
2022-10-18T05:19:06.777Z,102106.75
2022-10-18T05:21:35.016Z,102109.44
2022-10-18T05:24:03.027Z,102099.41
2022-10-18T05:26:32.362Z,102101.25
2022-10-18T05:29:00.576Z,102108.50
2022-10-18T05:31:28.661Z,102116.63
2022-10-18T05:33:57.109Z,102110.31
2022-10-18T05:36:26.076Z,102106.75
2022-10-18T05:38:54.126Z,102096.88
2022-10-18T05:41:22.149Z,102094.16
2022-10-18T05:43:51.536Z,102085.25
2022-10-18T05:46:19.504Z,102079.94
2022-10-18T05:48:51.145Z,102086.31
2022-10-18T05:51:19.565Z,102092.75
2022-10-18T05:53:47.577Z,102101.81
2022-10-18T05:56:15.641Z,102096.38
2022-10-18T05:58:43.882Z,102091.94
2022-10-18T06:01:13.279Z,102102.84
2022-10-18T06:03:41.253Z,102101.97
2022-10-18T06:06:10.467Z,102103.81
2022-10-18T06:08:39.557Z,102109.22
2022-10-18T06:11:08.424Z,102116.38
2022-10-18T06:13:36.430Z,102118.03
2022-10-18T06:16:04.494Z,102127.06
2022-10-18T06:18:33.884Z,102137.81
2022-10-18T06:21:01.901Z,102151.34
2022-10-18T06:23:30.846Z,102151.25
2022-10-18T06:26:02.616Z,102144.81
2022-10-18T06:28:31.235Z,102138.44
2022-10-18T06:30:59.330Z,102143.78
2022-10-18T06:33:27.372Z,102140.97
2022-10-18T06:35:58.152Z,102148.97
2022-10-18T06:38:26.579Z,102151.59
2022-10-18T06:40:55.238Z,102151.50
2022-10-18T06:43:23.700Z,102156.75
2022-10-18T06:45:52.279Z,102162.97
2022-10-18T06:48:21.095Z,102171.91
2022-10-18T06:50:53.899Z,102167.28
2022-10-18T06:53:23.277Z,102164.53
2022-10-18T06:55:51.287Z,102162.59
2022-10-18T06:58:19.639Z,102168.91
2022-10-18T07:00:47.967Z,102175.09
2022-10-18T07:03:15.991Z,102175.91
2022-10-18T07:05:44.098Z,102182.09
2022-10-18T07:08:12.127Z,102187.44
2022-10-18T07:10:41.551Z,102181.97
2022-10-18T07:16:02.093Z,102189.06
2022-10-18T07:18:36.436Z,102178.13
2022-10-18T07:21:05.303Z,102176.13
2022-10-18T07:23:34.005Z,102179.63
2022-10-18T07:26:04.557Z,102185.78
2022-10-18T07:28:32.587Z,102189.19
2022-10-18T07:31:06.174Z,102190.78
2022-10-18T07:33:34.396Z,102177.06
2022-10-18T07:36:03.124Z,102189.59
2022-10-18T07:38:31.255Z,102192.13
2022-10-18T07:40:59.665Z,102192.84
2022-10-18T07:43:29.118Z,102207.09
2022-10-18T07:45:58.690Z,102204.22
2022-10-18T07:48:27.145Z,102199.50
2022-10-18T07:50:55.601Z,102209.41
2022-10-18T07:53:23.627Z,102202.06
2022-10-18T07:55:51.636Z,102212.72
2022-10-18T07:58:19.664Z,102200.03
2022-10-18T08:00:49.016Z,102200.00
2022-10-18T08:03:17.035Z,102209.97
2022-10-18T08:05:45.049Z,102208.13
2022-10-18T08:08:13.057Z,102199.13
2022-10-18T08:10:41.051Z,102209.13
2022-10-18T08:13:09.093Z,102208.13
2022-10-18T08:15:37.106Z,102198.16
2022-10-18T08:18:06.457Z,102203.56
2022-10-18T08:20:36.221Z,102204.44
2022-10-18T08:23:04.830Z,102197.19
2022-10-18T08:25:32.923Z,102211.63
2022-10-18T08:28:01.626Z,102202.59
2022-10-18T08:30:29.784Z,102200.88
2022-10-18T08:32:57.796Z,102209.97
2022-10-18T08:35:27.187Z,102209.97
2022-10-18T08:37:55.181Z,102213.59
2022-10-18T08:40:23.372Z,102208.13
2022-10-18T08:43:01.777Z,102221.72
2022-10-18T08:45:41.537Z,102220.94
2022-10-18T08:48:21.857Z,102231.88
2022-10-18T08:50:52.818Z,102234.66
2022-10-18T08:53:25.493Z,102230.03
2022-10-18T08:55:56.177Z,102240.38
2022-10-18T08:58:26.685Z,102238.75
2022-10-18T09:01:09.737Z,102238.47
2022-10-18T09:03:55.565Z,102239.03
2022-10-18T09:06:31.293Z,102235.56
2022-10-18T09:09:34.029Z,102232.13
2022-10-18T09:14:50.180Z,102230.03
2022-10-18T09:17:28.899Z,102225.13
2022-10-18T09:20:07.364Z,102222.00
2022-10-18T09:22:47.925Z,102219.63
2022-10-18T09:25:19.986Z,102220.84
2022-10-18T09:27:53.571Z,102220.31
2022-10-18T09:30:40.349Z,102218.38
2022-10-18T09:33:21.474Z,102218.19
2022-10-18T09:35:53.116Z,102208.66
2022-10-18T09:40:57.139Z,102216.34
2022-10-18T09:43:27.517Z,102222.53
2022-10-18T09:45:56.595Z,102212.91
2022-10-18T09:48:28.987Z,102207.84
2022-10-18T09:51:01.707Z,102207.97
2022-10-18T09:53:37.899Z,102213.31
2022-10-18T09:56:07.494Z,102211.28
2022-10-18T09:58:42.971Z,102206.91
2022-10-18T10:01:14.435Z,102214.66
2022-10-18T10:03:46.041Z,102209.31
2022-10-18T10:06:28.452Z,102208.34
2022-10-18T10:09:02.663Z,102216.41
2022-10-18T10:11:36.865Z,102207.63
2022-10-18T10:16:48.164Z,102225.66
2022-10-18T10:19:21.345Z,102225.75
2022-10-18T10:21:50.886Z,102231.97
2022-10-18T10:24:31.283Z,102234.00
2022-10-18T10:27:01.287Z,102231.00
2022-10-18T10:29:51.556Z,102234.88
2022-10-18T10:32:21.908Z,102229.94
2022-10-18T10:34:50.266Z,102222.53
2022-10-18T10:37:30.697Z,102234.69
2022-10-18T10:40:19.254Z,102225.97
2022-10-18T10:43:18.204Z,102236.38
2022-10-18T10:46:03.856Z,102237.63
2022-10-18T10:48:34.463Z,102236.31
2022-10-18T10:51:08.075Z,102243.13
2022-10-18T10:53:45.477Z,102230.47
2022-10-18T10:56:23.293Z,102234.19
2022-10-18T10:58:52.117Z,102221.44
2022-10-18T11:01:29.466Z,102220.13
2022-10-18T11:04:00.193Z,102211.44
2022-10-18T11:06:51.960Z,102224.31
2022-10-18T11:09:42.955Z,102211.69
2022-10-18T11:12:22.202Z,102213.03
2022-10-18T11:14:55.613Z,102213.16
2022-10-18T11:17:28.232Z,102209.09
2022-10-18T11:20:18.826Z,102216.75
2022-10-18T11:22:57.223Z,102213.41
2022-10-18T11:25:30.064Z,102216.16
2022-10-18T11:28:05.485Z,102217.47
2022-10-18T11:30:53.348Z,102212.00
2022-10-18T11:33:50.098Z,102214.38
2022-10-18T11:36:21.641Z,102225.25
2022-10-18T11:38:57.096Z,102226.34
2022-10-18T11:41:49.433Z,102220.66
2022-10-18T11:44:23.659Z,102223.63
2022-10-18T11:46:59.793Z,102217.47
2022-10-18T11:49:54.938Z,102225.69
2022-10-18T11:52:30.790Z,102221.72
2022-10-18T11:55:31.916Z,102221.63
2022-10-18T11:58:07.378Z,102227.09
2022-10-18T12:00:45.717Z,102222.25
2022-10-18T12:03:35.788Z,102222.53
2022-10-18T12:06:07.542Z,102222.75
2022-10-18T12:08:39.018Z,102223.13
2022-10-18T12:11:14.084Z,102219.44
2022-10-18T12:13:47.825Z,102225.84
2022-10-18T12:16:33.465Z,102221.19
2022-10-18T12:19:14.117Z,102214.19
2022-10-18T12:21:43.463Z,102215.44
2022-10-18T12:24:16.102Z,102221.59
2022-10-18T12:26:45.060Z,102211.88
2022-10-18T12:29:19.714Z,102203.78
2022-10-18T12:31:51.063Z,102207.00
2022-10-18T12:34:29.187Z,102209.06
2022-10-18T12:37:24.323Z,102208.47
2022-10-18T12:40:13.139Z,102212.34
2022-10-18T12:42:44.121Z,102216.81
2022-10-18T12:45:30.122Z,102213.78
2022-10-18T12:48:02.346Z,102206.69
2022-10-18T12:50:34.711Z,102209.41
2022-10-18T12:53:15.294Z,102218.59
2022-10-18T12:55:45.042Z,102220.19
2022-10-18T12:58:28.067Z,102222.28
2022-10-18T13:01:06.796Z,102217.25
2022-10-18T13:04:00.561Z,102227.97
2022-10-18T13:06:48.738Z,102229.53
2022-10-18T13:09:22.247Z,102235.66
2022-10-18T13:11:50.988Z,102230.22
2022-10-18T13:15:12.452Z,102223.53
2022-10-18T13:17:48.507Z,102229.25
2022-10-18T13:20:27.290Z,102229.44
2022-10-18T13:23:06.460Z,102233.34
2022-10-18T13:25:47.117Z,102230.13
2022-10-18T13:28:25.184Z,102237.78
2022-10-18T13:30:56.624Z,102237.38
2022-10-18T13:33:31.614Z,102236.22
2022-10-18T13:36:01.869Z,102233.50
2022-10-18T13:38:37.920Z,102229.03
2022-10-18T13:41:07.716Z,102225.28
2022-10-18T13:43:57.134Z,102228.84
2022-10-18T13:46:45.623Z,102223.00
2022-10-18T13:49:31.059Z,102224.38
2022-10-18T13:52:07.620Z,102217.38
2022-10-18T13:54:50.200Z,102231.38
2022-10-18T13:57:30.653Z,102218.94
2022-10-18T14:00:31.259Z,102230.22
2022-10-18T14:03:44.161Z,102232.75
2022-10-18T14:06:08.719Z,102221.84
2022-10-18T14:08:41.354Z,102235.25
2022-10-18T14:11:17.285Z,102234.88
2022-10-18T14:13:48.152Z,102241.66
2022-10-18T14:16:28.055Z,102235.63
2022-10-18T14:19:01.968Z,102234.09
2022-10-18T14:21:35.987Z,102229.59
2022-10-18T14:24:11.520Z,102235.19
2022-10-18T14:29:18.753Z,102228.19
2022-10-18T14:31:53.696Z,102235.56
2022-10-18T14:34:22.230Z,102230.28
2022-10-18T14:36:50.876Z,102232.13
2022-10-18T14:39:23.279Z,102229.81
2022-10-18T14:41:53.256Z,102238.06
2022-10-18T14:44:25.727Z,102240.78
2022-10-18T14:46:59.956Z,102240.00
2022-10-18T14:49:28.259Z,102235.53
2022-10-18T14:51:58.951Z,102231.94
2022-10-18T14:54:32.076Z,102231.22
2022-10-18T14:57:01.137Z,102219.69
2022-10-18T14:59:30.644Z,102225.91
2022-10-18T15:02:01.297Z,102227.72
2022-10-18T15:04:33.038Z,102228.81
2022-10-18T15:07:03.031Z,102225.31
2022-10-18T15:09:34.028Z,102227.31
2022-10-18T15:12:03.140Z,102223.81
2022-10-18T15:14:31.236Z,102225.84
2022-10-18T15:17:02.707Z,102240.50
2022-10-18T15:19:33.894Z,102225.50
2022-10-18T15:22:30.165Z,102244.81
2022-10-18T15:25:12.246Z,102237.97
2022-10-18T15:30:20.719Z,102239.41
2022-10-18T15:32:52.006Z,102236.84
2022-10-18T15:35:26.116Z,102233.44
2022-10-18T15:37:55.827Z,102240.03
2022-10-18T15:40:34.871Z,102229.41
2022-10-18T15:43:04.110Z,102235.19
2022-10-18T15:45:38.354Z,102240.03
2022-10-18T15:48:23.477Z,102240.19
2022-10-18T15:50:52.601Z,102239.50
2022-10-18T15:53:26.635Z,102243.25
2022-10-18T15:55:58.155Z,102241.69
2022-10-18T15:58:28.382Z,102231.94
2022-10-18T16:00:59.091Z,102241.97
2022-10-18T16:03:27.791Z,102238.47
2022-10-18T16:06:00.549Z,102236.81
2022-10-18T16:08:30.693Z,102236.97
2022-10-18T16:11:00.686Z,102234.44
2022-10-18T16:13:28.842Z,102242.66
2022-10-18T16:15:56.865Z,102241.97
2022-10-18T16:18:25.353Z,102226.84
2022-10-18T16:20:53.461Z,102227.94
2022-10-18T16:23:22.912Z,102230.84
2022-10-18T16:25:51.367Z,102237.22
2022-10-18T16:28:22.418Z,102234.59
2022-10-18T16:30:55.764Z,102241.94
2022-10-18T16:33:24.387Z,102239.38
2022-10-18T16:35:52.564Z,102251.19
2022-10-18T16:38:32.669Z,102246.03
2022-10-18T16:41:03.984Z,102254.25
2022-10-18T16:43:34.642Z,102241.75
2022-10-18T16:46:03.056Z,102259.84
2022-10-18T16:48:31.503Z,102255.34
2022-10-18T16:50:59.841Z,102259.84
2022-10-18T16:53:28.159Z,102268.03
2022-10-18T16:55:58.364Z,102268.19
2022-10-18T16:58:28.079Z,102269.06
2022-10-18T17:00:58.193Z,102269.06
2022-10-18T17:03:26.852Z,102282.63
2022-10-18T17:05:56.247Z,102286.31
2022-10-18T17:08:26.398Z,102296.34
2022-10-18T17:10:57.503Z,102296.63
2022-10-18T17:13:27.024Z,102300.50
2022-10-18T17:15:55.262Z,102295.34
2022-10-18T17:18:27.580Z,102300.94
2022-10-18T17:20:56.554Z,102298.44
2022-10-18T17:23:24.583Z,102299.47
2022-10-18T17:26:06.716Z,102305.94
2022-10-18T17:28:41.875Z,102311.44
2022-10-18T17:31:10.025Z,102312.50
2022-10-18T17:33:39.376Z,102315.19
2022-10-18T17:36:07.952Z,102312.53
2022-10-18T17:38:36.113Z,102317.16
2022-10-18T17:41:07.576Z,102318.22
2022-10-18T17:43:37.350Z,102322.91
2022-10-18T17:46:05.759Z,102319.31
2022-10-18T17:48:33.830Z,102325.69
2022-10-18T17:51:07.904Z,102326.66
2022-10-18T17:53:36.196Z,102330.28
2022-10-18T17:56:04.925Z,102326.00
2022-10-18T17:58:33.337Z,102337.00
2022-10-18T18:01:09.875Z,102336.34
2022-10-18T18:03:38.078Z,102342.88
2022-10-18T18:06:18.581Z,102340.41
2022-10-18T18:08:47.010Z,102345.09
2022-10-18T18:11:15.285Z,102347.94
2022-10-18T18:13:43.381Z,102350.63
2022-10-18T18:16:16.606Z,102354.25
2022-10-18T18:18:44.906Z,102350.69
2022-10-18T18:21:13.041Z,102350.91
2022-10-18T18:23:42.447Z,102353.78
2022-10-18T18:26:10.593Z,102350.41
2022-10-18T18:28:38.714Z,102358.75
2022-10-18T18:31:08.032Z,102361.66
2022-10-18T18:33:36.445Z,102373.53
2022-10-18T18:36:06.680Z,102356.63
2022-10-18T18:38:36.037Z,102360.38
2022-10-18T18:41:10.006Z,102355.03
2022-10-18T18:43:39.109Z,102360.50
2022-10-18T18:46:07.290Z,102363.34
2022-10-18T18:48:36.481Z,102362.63
2022-10-18T18:51:06.045Z,102365.50
2022-10-18T18:53:34.089Z,102369.19
2022-10-18T18:56:03.502Z,102370.22
2022-10-18T18:58:33.129Z,102375.84
2022-10-18T19:01:05.921Z,102361.59
2022-10-18T19:03:34.107Z,102361.78
2022-10-18T19:06:06.208Z,102351.19
2022-10-18T19:08:36.434Z,102341.34
2022-10-18T19:11:08.106Z,102345.06
2022-10-18T19:13:38.710Z,102340.59
2022-10-18T19:16:17.999Z,102337.13
2022-10-18T19:18:54.437Z,102346.13
2022-10-18T19:21:22.776Z,102351.53
2022-10-18T19:23:50.897Z,102347.97
2022-10-18T19:26:31.122Z,102354.38
2022-10-18T19:29:06.333Z,102359.00
2022-10-18T19:31:35.635Z,102352.72
2022-10-18T19:34:05.071Z,102357.25
2022-10-18T19:36:33.170Z,102356.28
2022-10-18T19:39:01.592Z,102356.28
2022-10-18T19:41:29.662Z,102348.19
2022-10-18T19:43:58.179Z,102357.25
2022-10-18T19:46:27.602Z,102362.72
2022-10-18T19:48:55.593Z,102361.84
2022-10-18T19:51:27.076Z,102370.78
2022-10-18T19:53:56.464Z,102366.16
2022-10-18T19:56:25.521Z,102369.75
2022-10-18T19:58:53.619Z,102366.22
2022-10-18T20:01:22.256Z,102371.88
2022-10-18T20:03:51.865Z,102370.28
2022-10-18T20:06:19.904Z,102376.00
2022-10-18T20:08:48.165Z,102377.94
2022-10-18T20:11:17.925Z,102378.94
2022-10-18T20:13:45.960Z,102381.72
2022-10-18T20:16:15.417Z,102374.56
2022-10-18T20:18:44.172Z,102375.66
2022-10-18T20:21:15.469Z,102372.13
2022-10-18T20:23:44.803Z,102387.53
2022-10-18T20:26:18.152Z,102384.03
2022-10-18T20:28:49.170Z,102388.53
2022-10-18T20:31:19.081Z,102395.84
2022-10-18T20:33:47.613Z,102399.56
2022-10-18T20:36:18.426Z,102400.75
2022-10-18T20:38:47.756Z,102389.47
2022-10-18T20:41:17.682Z,102393.28
2022-10-18T20:43:46.041Z,102380.78
2022-10-18T20:46:14.067Z,102378.09
2022-10-18T20:48:42.045Z,102375.38
2022-10-18T20:51:12.704Z,102382.53
2022-10-18T20:53:42.177Z,102391.59
2022-10-18T20:56:12.191Z,102387.94
2022-10-18T20:58:41.085Z,102388.81
2022-10-18T21:01:09.759Z,102388.81
2022-10-18T21:03:39.052Z,102384.22
2022-10-18T21:06:11.770Z,102395.84
2022-10-18T21:08:40.152Z,102390.50
2022-10-18T21:11:09.942Z,102384.22
2022-10-18T21:13:38.271Z,102386.88
2022-10-18T21:16:06.934Z,102377.94
2022-10-18T21:18:36.350Z,102374.38
2022-10-18T21:21:08.921Z,102378.91
2022-10-18T21:23:36.978Z,102369.09
2022-10-18T21:26:05.512Z,102371.03
2022-10-18T21:28:35.423Z,102373.06
2022-10-18T21:31:12.273Z,102372.31
2022-10-18T21:33:40.362Z,102377.03
2022-10-18T21:36:08.941Z,102372.69
2022-10-18T21:38:37.069Z,102377.28
2022-10-18T21:41:09.378Z,102367.44
2022-10-18T21:43:40.894Z,102371.91
2022-10-18T21:46:10.064Z,102374.53
2022-10-18T21:48:38.974Z,102373.50
2022-10-18T21:51:08.499Z,102369.88
2022-10-18T21:53:36.935Z,102375.16
2022-10-18T21:56:06.804Z,102384.09
2022-10-18T21:58:35.425Z,102379.41
2022-10-18T22:01:08.297Z,102374.81
2022-10-18T22:03:36.401Z,102365.69
2022-10-18T22:06:07.629Z,102369.22
2022-10-18T22:08:35.846Z,102374.63
2022-10-18T22:11:04.342Z,102376.50
2022-10-18T22:13:32.586Z,102377.47
2022-10-18T22:16:01.802Z,102382.06
2022-10-18T22:18:31.743Z,102384.81
2022-10-18T22:21:01.454Z,102383.94
2022-10-18T22:23:32.927Z,102388.41
2022-10-18T22:26:04.970Z,102387.53
2022-10-18T22:28:33.059Z,102393.88
2022-10-18T22:31:01.079Z,102403.78
2022-10-18T22:33:29.104Z,102395.69
2022-10-18T22:35:58.538Z,102393.06
2022-10-18T22:38:26.513Z,102404.88
2022-10-18T22:40:54.509Z,102397.81
2022-10-18T22:43:22.486Z,102404.38
2022-10-18T22:45:50.476Z,102397.38
2022-10-18T22:48:18.444Z,102390.28
2022-10-18T22:50:46.401Z,102388.59
2022-10-18T22:53:15.747Z,102387.72
2022-10-18T22:55:43.730Z,102392.25
2022-10-18T22:58:11.755Z,102385.97
2022-10-18T23:00:39.786Z,102387.66
2022-10-18T23:03:07.795Z,102385.84
2022-10-18T23:05:38.690Z,102376.78
2022-10-18T23:08:07.234Z,102384.75
2022-10-18T23:10:37.733Z,102382.91
2022-10-18T23:13:05.975Z,102376.56
2022-10-18T23:15:34.181Z,102371.91
2022-10-18T23:18:02.198Z,102378.09
2022-10-18T23:20:30.186Z,102382.56
2022-10-18T23:22:58.192Z,102377.16
2022-10-18T23:25:27.198Z,102382.56
2022-10-18T23:27:57.616Z,102373.50
2022-10-18T23:30:25.591Z,102380.75
2022-10-18T23:32:53.581Z,102378.84
2022-10-18T23:35:21.546Z,102382.44
2022-10-18T23:37:49.528Z,102386.00
2022-10-18T23:40:17.584Z,102382.44
2022-10-18T23:42:45.588Z,102382.44
2022-10-18T23:45:14.905Z,102384.25
2022-10-18T23:47:42.902Z,102382.44
2022-10-18T23:50:11.305Z,102385.06
2022-10-18T23:52:39.329Z,102388.69
2022-10-18T23:55:08.709Z,102391.47
2022-10-18T23:57:36.760Z,102382.44
